KISM/ISM METAR and TAF weather

Enter ICAO airport designator
Station Type Date Time Source
KISM METAR 2020/09/20 13:56 UTC NOAA

KISM 201356Z 03008G14KT 10SM OVC011 27/26 A2995 RMK AO2 SLP139 T02670256 $


Station Type Date Time Source
KISM Decoded METAR 2020/09/20 13:56 UTC NOAA

Orlando, Kissimmee Municipal Airport, FL, United States (KISM) 28-17-23N 081-26-14W
Sep 20, 2020 - 09:56 AM EDT / 2020.09.20 1356 UTC
Wind: from the NNE (030 degrees) at 9 MPH (8 KT) gusting to 16 MPH (14 KT):0
Visibility: 10 mile(s):0
Sky conditions: overcast
Temperature: 80.1 F (26.7 C)
Dew Point: 78.1 F (25.6 C)
Relative Humidity: 93%
Pressure (altimeter): 29.95 in. Hg (1014 hPa)
ob: KISM 201356Z 03008G14KT 10SM OVC011 27/26 A2995 RMK AO2 SLP139 T02670256
cycle: 14

Station Type Date Time Source
KISM TAF 2020/09/20 13:40 UTC NOAA

TAF
AMD KISM 201238Z 2013/2112 03013KT P6SM VCSH SCT008 BKN022 OVC040
TEMPO 2013/2014 2SM SHRA BKN008
FM201400 03016G26KT P6SM VCSH BKN025 OVC040
FM201800 04019G28KT P6SM VCSH BKN035 BKN050
FM210000 04014G22KT P6SM BKN030

Example: see airport list